Time;durP1;ratioP1;P1;durP2;ratioP2;P2;SDS_P1;SDS_P2;PMS_P1;PMS_P2;Temp;Humidity;BMP_temperature;BMP_pressure;BME280_temperature;BME280_humidity;BME280_pressure;Samples;Min_cycle;Max_cycle;Signal;HPM_P1;HPM_P2
2022/06/21 00:02:15;;;;;;;8.90;3.25;;;11.10;96.90;;;;;;6246277;23;20354;-77
2022/06/21 00:04:41;;;;;;;8.68;3.15;;;11.10;97.10;;;;;;6246141;23;20051;-76
2022/06/21 00:07:20;;;;;;;11.70;3.30;;;11.10;97.00;;;;;;6220838;23;20480;-77
2022/06/21 00:09:46;;;;;;;10.20;3.42;;;11.10;97.20;;;;;;6220803;23;20374;-78
2022/06/21 00:12:12;;;;;;;9.95;3.25;;;11.00;97.10;;;;;;6220605;23;20020;-76
2022/06/21 00:14:40;;;;;;;8.77;3.20;;;11.00;97.10;;;;;;6245784;23;20008;-76
2022/06/21 00:17:05;;;;;;;9.73;3.38;;;11.00;97.10;;;;;;6245677;22;20415;-78
2022/06/21 00:19:32;;;;;;;13.05;3.70;;;10.90;97.10;;;;;;6220150;23;20020;-77
2022/06/21 00:21:57;;;;;;;;;;;11.00;97.20;;;;;;6246617;23;20014;-76
2022/06/21 00:24:23;;;;;;;14.25;3.35;;;10.90;97.60;;;;;;6220348;23;19943;-76
2022/06/21 00:26:49;;;;;;;15.13;3.63;;;10.90;97.40;;;;;;6220674;23;20016;-78
2022/06/21 00:29:15;;;;;;;10.68;3.60;;;10.90;97.40;;;;;;6220817;23;20004;-77
2022/06/21 00:31:45;;;;;;;8.25;3.90;;;10.90;97.60;;;;;;6245468;23;20087;-76
2022/06/21 00:34:19;;;;;;;10.32;3.83;;;11.00;97.50;;;;;;6219746;23;20019;-77
2022/06/21 00:36:45;;;;;;;13.48;3.85;;;10.80;97.50;;;;;;6245843;22;20008;-76
2022/06/21 00:39:16;;;;;;;9.63;3.85;;;10.80;97.80;;;;;;6245642;23;20343;-76
2022/06/21 00:42:12;;;;;;;12.48;4.22;;;10.80;97.70;;;;;;6245299;23;20079;-77
2022/06/21 00:44:56;;;;;;;8.95;4.05;;;10.80;97.90;;;;;;6245599;23;20022;-78
2022/06/21 00:47:36;;;;;;;15.95;5.25;;;10.70;98.50;;;;;;6220529;23;20427;-77
2022/06/21 00:50:11;;;;;;;11.48;4.75;;;10.80;98.10;;;;;;6220248;23;20004;-79
2022/06/21 00:52:42;;;;;;;7.63;3.67;;;10.80;97.80;;;;;;6219826;23;20012;-76
2022/06/21 00:55:33;;;;;;;10.20;4.28;;;10.80;97.80;;;;;;6219450;23;20092;-75
2022/06/21 00:57:59;;;;;;;8.88;4.22;;;10.80;97.70;;;;;;6244116;22;20439;-77
2022/06/21 01:00:30;;;;;;;8.32;3.60;;;10.80;97.80;;;;;;6221810;23;20016;-77
2022/06/21 01:02:59;;;;;;;15.35;4.28;;;10.80;97.60;;;;;;6239416;23;20045;-77
2022/06/21 01:05:29;;;;;;;9.55;4.10;;;10.70;97.50;;;;;;6252210;23;20015;-77
2022/06/21 01:07:57;;;;;;;10.27;3.83;;;10.70;97.40;;;;;;6245603;22;20094;-77
2022/06/21 01:10:23;;;;;;;12.40;4.03;;;10.70;97.60;;;;;;6246232;23;20384;-76
2022/06/21 01:13:00;;;;;;;8.68;3.72;;;10.60;97.70;;;;;;6220260;23;20110;-78
2022/06/21 01:15:40;;;;;;;7.43;3.70;;;10.60;97.60;;;;;;6245092;23;20012;-77
2022/06/21 01:18:08;;;;;;;10.23;3.90;;;10.60;97.80;;;;;;6245729;22;20019;-77
2022/06/21 01:20:38;;;;;;;11.07;3.90;;;10.50;97.60;;;;;;6220340;23;20019;-76
2022/06/21 01:23:16;;;;;;;8.95;4.30;;;10.50;97.80;;;;;;6220253;23;20012;-77
2022/06/21 01:26:07;;;;;;;9.10;4.40;;;10.50;97.60;;;;;;6220353;23;20067;-77
2022/06/21 01:28:34;;;;;;;9.55;4.35;;;10.50;97.70;;;;;;6220403;23;20016;-76
2022/06/21 01:31:01;;;;;;;9.80;3.90;;;10.40;97.90;;;;;;6245083;23;20083;-77
2022/06/21 01:33:31;;;;;;;14.98;4.40;;;10.40;97.60;;;;;;6220081;23;20090;-77
2022/06/21 01:36:01;;;;;;;8.60;4.38;;;10.40;97.70;;;;;;6220085;23;20016;-76
2022/06/21 01:38:32;;;;;;;11.20;4.72;;;10.40;97.90;;;;;;6220218;23;20012;-77
2022/06/21 01:41:07;;;;;;;10.48;4.90;;;10.40;97.90;;;;;;6244917;23;20020;-76
2022/06/21 01:43:34;;;;;;;10.90;4.40;;;10.30;98.00;;;;;;6219498;23;20450;-76
2022/06/21 01:46:10;;;;;;;13.50;4.22;;;10.30;98.20;;;;;;6219413;23;20016;-76
2022/06/21 01:48:44;;;;;;;7.88;4.30;;;10.30;98.00;;;;;;6244975;22;20016;-76
2022/06/21 01:51:15;;;;;;;11.77;4.45;;;10.40;98.10;;;;;;6220044;23;20016;-76
2022/06/21 01:53:41;;;;;;;12.73;4.72;;;10.30;98.10;;;;;;6219511;23;20014;-79
2022/06/21 01:56:11;;;;;;;7.47;4.65;;;10.30;98.10;;;;;;6245152;23;20019;-76
2022/06/21 01:58:43;;;;;;;13.30;5.47;;;10.30;98.10;;;;;;6219441;23;20008;-76
2022/06/21 02:02:01;;;;;;;12.57;4.35;;;10.30;98.20;;;;;;6219849;23;20022;-76
2022/06/21 02:04:35;;;;;;;15.02;4.70;;;10.30;98.50;;;;;;6241125;23;20012;-77
2022/06/21 02:07:05;;;;;;;10.88;4.97;;;10.20;98.20;;;;;;6244851;22;20015;-76
2022/06/21 02:09:41;;;;;;;10.32;4.55;;;10.20;97.90;;;;;;6219986;23;20145;-77
2022/06/21 02:12:11;;;;;;;10.23;5.00;;;10.20;98.10;;;;;;6245126;23;20012;-77
2022/06/21 02:14:53;;;;;;;11.43;4.30;;;10.20;98.00;;;;;;6248171;23;20091;-77
2022/06/21 02:17:23;;;;;;;9.35;3.95;;;10.20;98.10;;;;;;6267310;22;20015;-77
2022/06/21 02:20:26;;;;;;;10.27;4.50;;;10.20;98.00;;;;;;6224449;23;20063;-75
2022/06/21 02:22:52;;;;;;;8.00;3.63;;;10.10;98.10;;;;;;6219122;23;20020;-77
2022/06/21 02:25:21;;;;;;;7.80;4.60;;;10.10;98.20;;;;;;6244331;23;20008;-77
2022/06/21 02:27:50;;;;;;;9.70;4.30;;;10.10;98.10;;;;;;6220048;23;20015;-76
2022/06/21 02:30:24;;;;;;;9.75;4.63;;;10.00;98.00;;;;;;6244623;23;20008;-79
2022/06/21 02:32:51;;;;;;;8.80;4.40;;;10.00;98.10;;;;;;6219478;23;20434;-77
2022/06/21 02:35:25;;;;;;;9.35;4.72;;;10.00;97.80;;;;;;6244299;23;20059;-77
2022/06/21 02:37:54;;;;;;;6.25;4.55;;;10.00;98.00;;;;;;6245017;22;20066;-77
2022/06/21 02:40:34;;;;;;;9.07;3.67;;;9.90;98.30;;;;;;6244774;23;20009;-77
2022/06/21 02:43:09;;;;;;;7.10;4.10;;;9.90;98.10;;;;;;6244742;23;20077;-76
2022/06/21 02:46:09;;;;;;;8.55;4.25;;;9.90;98.40;;;;;;6244411;23;20070;-76
2022/06/21 02:48:43;;;;;;;6.03;3.15;;;9.90;98.20;;;;;;6205357;23;20058;-77
2022/06/21 02:51:13;;;;;;;8.20;4.45;;;9.90;98.10;;;;;;6219647;23;20016;-77
2022/06/21 02:54:00;;;;;;;7.55;4.40;;;9.90;98.10;;;;;;6218884;23;20016;-76
2022/06/21 02:56:32;;;;;;;;;;;9.90;98.70;;;;;;6245331;23;20318;-76
2022/06/21 02:59:01;;;;;;;6.90;4.25;;;9.90;98.70;;;;;;6244567;22;19923;-77
2022/06/21 03:01:37;;;;;;;8.60;4.82;;;9.90;98.40;;;;;;6219140;23;20012;-77
2022/06/21 03:04:04;;;;;;;7.30;3.70;;;9.90;98.70;;;;;;6218909;23;20431;-77
2022/06/21 03:06:32;;;;;;;7.93;4.35;;;9.90;98.70;;;;;;6245745;23;20015;-76
2022/06/21 03:09:07;;;;;;;7.63;4.15;;;9.90;99.20;;;;;;6220939;23;20074;-75
2022/06/21 03:11:42;;;;;;;7.93;4.75;;;10.10;99.10;;;;;;6221459;23;20023;-76
2022/06/21 03:14:12;;;;;;;8.07;4.35;;;10.10;99.20;;;;;;6221135;23;20012;-76
2022/06/21 03:16:40;;;;;;;6.32;4.13;;;10.20;99.20;;;;;;6221582;22;20012;-75
2022/06/21 03:19:19;;;;;;;8.00;4.57;;;10.20;99.40;;;;;;6221107;23;20095;-76
2022/06/21 03:21:45;;;;;;;10.13;4.10;;;10.20;99.70;;;;;;6246510;23;20039;-76
2022/06/21 03:24:16;;;;;;;11.18;5.10;;;10.20;99.30;;;;;;6257021;23;20008;-76
2022/06/21 03:26:48;;;;;;;8.45;4.90;;;10.30;99.20;;;;;;6229565;22;20004;-74
2022/06/21 03:29:14;;;;;;;10.57;4.90;;;10.20;99.70;;;;;;6254121;23;20130;-79
2022/06/21 03:31:48;;;;;;;7.35;3.97;;;10.20;99.50;;;;;;6221791;23;20012;-77
2022/06/21 03:34:17;;;;;;;5.38;4.13;;;10.30;99.10;;;;;;6220902;23;20012;-77
2022/06/21 03:36:43;;;;;;;10.93;5.75;;;10.30;99.10;;;;;;6221311;22;20012;-78
2022/06/21 03:39:17;;;;;;;8.23;4.20;;;10.30;99.80;;;;;;6246023;23;20043;-76
2022/06/21 03:41:46;;;;;;;7.45;4.80;;;10.40;99.50;;;;;;6221233;23;20066;-78
2022/06/21 03:44:29;;;;;;;7.85;4.50;;;10.50;99.20;;;;;;6221195;23;20501;-78
2022/06/21 03:47:09;;;;;;;9.05;5.15;;;10.50;99.60;;;;;;6245925;22;20071;-78
2022/06/21 03:49:55;;;;;;;7.93;4.55;;;10.50;99.50;;;;;;6246778;23;20019;-75
2022/06/21 03:52:42;;;;;;;9.93;5.03;;;10.50;99.70;;;;;;6245674;23;20010;-76
2022/06/21 03:55:17;;;;;;;;;;;10.50;99.30;;;;;;6220992;23;20051;-77
2022/06/21 03:58:02;;;;;;;7.60;4.10;;;10.50;99.90;;;;;;6220977;23;19912;-77
2022/06/21 04:00:36;;;;;;;8.63;4.28;;;10.40;99.30;;;;;;6241604;23;20404;-76
2022/06/21 04:03:14;;;;;;;9.18;4.20;;;10.50;99.10;;;;;;6195607;23;20434;-77
2022/06/21 04:05:48;;;;;;;10.05;4.53;;;10.40;99.90;;;;;;6195857;23;20030;-75
2022/06/21 04:08:30;;;;;;;9.73;4.13;;;10.30;99.90;;;;;;6220768;23;20312;-75
2022/06/21 04:11:07;;;;;;;9.02;4.10;;;10.30;99.90;;;;;;6246289;23;20019;-76
2022/06/21 04:13:47;;;;;;;7.65;3.65;;;10.30;99.90;;;;;;6245429;23;20016;-76
2022/06/21 04:16:27;;;;;;;7.28;4.53;;;10.40;99.90;;;;;;6245812;23;20082;-76
2022/06/21 04:18:52;;;;;;;7.60;4.50;;;10.50;99.90;;;;;;6245900;22;20008;-76
2022/06/21 04:21:40;;;;;;;12.00;4.97;;;10.50;99.90;;;;;;6220952;23;20024;-76
2022/06/21 04:24:29;;;;;;;8.15;5.03;;;10.70;99.90;;;;;;6220301;23;20012;-77
2022/06/21 04:27:03;;;;;;;9.25;5.03;;;10.80;99.90;;;;;;6246357;22;20292;-76
2022/06/21 04:29:51;;;;;;;7.50;5.40;;;10.90;99.90;;;;;;6246620;22;20044;-76
2022/06/21 04:32:31;;;;;;;12.07;4.80;;;11.10;99.90;;;;;;6229536;22;20016;-79
2022/06/21 04:35:06;;;;;;;10.52;4.40;;;11.30;99.80;;;;;;6267440;22;20062;-78
2022/06/21 04:38:02;;;;;;;10.82;4.88;;;11.50;99.60;;;;;;6255016;22;20047;-76
2022/06/21 04:40:36;;;;;;;10.15;4.40;;;11.70;99.40;;;;;;6250720;22;20019;-76
2022/06/21 04:43:12;;;;;;;14.38;5.78;;;11.80;99.30;;;;;;6225188;22;20018;-75
2022/06/21 04:46:02;;;;;;;14.20;5.03;;;11.90;99.30;;;;;;6225791;22;20043;-76
2022/06/21 04:48:41;;;;;;;23.27;6.38;;;12.10;99.00;;;;;;6250756;22;20016;-77
2022/06/21 04:51:16;;;;;;;11.52;5.05;;;12.30;98.90;;;;;;6250933;22;20019;-75
2022/06/21 04:53:59;;;;;;;9.20;4.85;;;12.40;98.80;;;;;;6277902;22;20300;-76
2022/06/21 04:56:37;;;;;;;7.68;4.10;;;12.70;98.00;;;;;;6224303;22;20020;-75
2022/06/21 04:59:10;;;;;;;6.93;4.28;;;12.90;98.20;;;;;;6225233;22;20008;-75
2022/06/21 05:01:37;;;;;;;10.02;4.90;;;13.10;97.50;;;;;;6250417;22;20089;-76
2022/06/21 05:04:19;;;;;;;10.20;4.75;;;13.30;97.50;;;;;;6225618;22;20095;-76
2022/06/21 05:06:48;;;;;;;12.95;5.22;;;13.40;97.20;;;;;;6250882;22;20015;-76
2022/06/21 05:09:17;;;;;;;10.05;4.57;;;13.40;97.40;;;;;;6278513;22;20314;-75
2022/06/21 05:11:43;;;;;;;10.13;5.20;;;13.40;97.50;;;;;;6254279;22;20011;-77
2022/06/21 05:14:26;;;;;;;11.35;4.93;;;13.50;97.40;;;;;;6277429;22;20008;-76
2022/06/21 05:16:52;;;;;;;14.00;4.95;;;13.50;97.50;;;;;;6253455;22;20059;-79
2022/06/21 05:19:27;;;;;;;15.52;5.90;;;13.60;97.40;;;;;;6278347;22;20020;-77
2022/06/21 05:22:30;;;;;;;11.32;4.90;;;13.60;97.50;;;;;;6250868;22;20430;-77
2022/06/21 05:24:58;;;;;;;17.42;5.38;;;13.60;97.00;;;;;;6250794;22;20047;-76
2022/06/21 05:27:31;;;;;;;9.98;4.70;;;13.60;97.60;;;;;;6225034;22;20158;-76
2022/06/21 05:30:12;;;;;;;12.98;5.07;;;13.60;97.50;;;;;;6250337;22;20011;-76
2022/06/21 05:33:00;;;;;;;12.10;5.47;;;13.60;97.40;;;;;;6224890;22;20019;-78
2022/06/21 05:35:29;;;;;;;10.45;4.90;;;13.60;97.60;;;;;;6250256;22;20488;-77
2022/06/21 05:38:06;;;;;;;11.75;5.68;;;13.70;97.60;;;;;;6250157;22;20011;-75
2022/06/21 05:40:53;;;;;;;15.73;5.53;;;13.70;97.50;;;;;;6250507;22;20325;-78
2022/06/21 05:43:20;;;;;;;;;;;13.60;97.90;;;;;;6225394;22;20047;-75
2022/06/21 05:45:52;;;;;;;15.10;5.63;;;13.70;97.60;;;;;;6225457;22;19907;-75
2022/06/21 05:48:24;;;;;;;9.93;5.00;;;13.80;97.50;;;;;;6267022;22;20012;-77
2022/06/21 05:50:50;;;;;;;10.10;5.10;;;13.80;97.40;;;;;;6232855;22;20011;-77
2022/06/21 05:53:27;;;;;;;12.98;5.40;;;13.90;97.60;;;;;;6250502;22;20013;-76
2022/06/21 05:55:53;;;;;;;;;;;14.00;97.50;;;;;;6250101;22;20008;-77
2022/06/21 05:58:30;;;;;;;12.57;5.40;;;14.20;97.40;;;;;;6249885;22;19991;-77
2022/06/21 06:01:11;;;;;;;12.82;5.20;;;14.30;97.00;;;;;;6250546;22;20058;-77
2022/06/21 06:03:51;;;;;;;10.48;5.18;;;14.40;97.10;;;;;;6250360;22;20043;-75
2022/06/21 06:06:20;;;;;;;15.05;6.22;;;14.60;96.20;;;;;;6249726;22;20016;-76
2022/06/21 06:08:55;;;;;;;13.82;6.47;;;14.70;95.80;;;;;;6249564;22;20291;-76
2022/06/21 06:14:22;;;;;;;11.13;5.05;;;15.10;96.10;;;;;;6250166;22;20015;-75
2022/06/21 06:16:52;;;;;;;13.95;5.68;;;15.50;95.40;;;;;;6249767;22;20011;-78
2022/06/21 06:19:25;;;;;;;9.25;4.35;;;15.80;94.20;;;;;;6249400;22;20007;-76
2022/06/21 06:22:17;;;;;;;10.23;3.97;;;16.10;92.90;;;;;;6249688;22;20142;-76
2022/06/21 06:24:57;;;;;;;10.07;4.78;;;16.30;92.30;;;;;;6250104;22;20430;-75
2022/06/21 06:27:50;;;;;;;8.52;3.38;;;16.60;92.50;;;;;;6224656;22;20031;-76
2022/06/21 06:30:31;;;;;;;10.50;3.78;;;16.90;90.80;;;;;;6219214;23;20015;-76
2022/06/21 06:33:07;;;;;;;10.95;2.83;;;17.10;90.10;;;;;;6244977;23;20427;-75
2022/06/21 06:35:33;;;;;;;8.03;2.80;;;17.20;88.40;;;;;;6244544;23;20059;-75
2022/06/21 06:37:58;;;;;;;9.18;3.05;;;17.30;89.60;;;;;;6218848;23;20238;-77
2022/06/21 06:40:32;;;;;;;9.88;3.45;;;17.50;89.10;;;;;;6244160;23;20469;-78
2022/06/21 06:43:10;;;;;;;11.15;3.35;;;17.60;87.50;;;;;;6219191;23;20032;-81
2022/06/21 06:45:43;;;;;;;8.65;3.15;;;17.70;86.40;;;;;;6218779;23;20423;-80
2022/06/21 06:48:22;;;;;;;10.32;3.38;;;17.90;85.50;;;;;;6218474;23;20418;-81
2022/06/21 06:51:05;;;;;;;8.23;2.83;;;18.00;84.60;;;;;;6244839;23;20094;-80
2022/06/21 06:53:50;;;;;;;6.03;2.88;;;18.30;84.30;;;;;;6221371;23;20008;-81
2022/06/21 06:56:21;;;;;;;13.27;2.88;;;18.40;82.80;;;;;;6219227;23;20450;-80
2022/06/21 06:58:53;;;;;;;8.95;2.88;;;18.60;83.30;;;;;;6218462;23;20004;-74
2022/06/21 07:02:06;;;;;;;10.50;2.70;;;18.80;82.20;;;;;;6245917;23;20012;-72
2022/06/21 07:05:19;;;;;;;;;;;;;;;;;;;;;
2022/06/21 07:08:42;;;;;;;7.03;2.90;;;19.20;79.40;;;;;;6244504;22;20327;-78
2022/06/21 07:11:19;;;;;;;12.10;3.15;;;19.00;78.40;;;;;;6244875;23;20023;-73
2022/06/21 07:13:47;;;;;;;10.32;2.75;;;18.90;78.60;;;;;;6244241;23;20435;-74
2022/06/21 07:16:18;;;;;;;14.00;3.22;;;19.00;82.00;;;;;;6219549;23;20323;-74
2022/06/21 07:18:50;;;;;;;8.60;2.80;;;19.10;81.50;;;;;;6244043;22;20012;-73
2022/06/21 07:21:17;;;;;;;11.32;3.30;;;19.20;80.90;;;;;;6219480;23;20015;-75
2022/06/21 07:23:44;;;;;;;6.28;2.55;;;19.40;81.90;;;;;;6244256;23;20019;-73
2022/06/21 07:26:31;;;;;;;10.90;2.55;;;19.40;80.40;;;;;;6219443;23;20035;-74
2022/06/21 07:29:20;;;;;;;8.70;2.50;;;19.60;79.40;;;;;;6244217;22;20044;-74
2022/06/21 07:31:52;;;;;;;7.20;2.50;;;19.40;80.00;;;;;;6244352;23;20009;-77
2022/06/21 07:34:28;;;;;;;8.25;2.60;;;19.30;79.70;;;;;;6244670;23;20037;-73
2022/06/21 07:37:44;;;;;;;16.05;2.75;;;19.30;79.20;;;;;;6244559;23;20012;-72
2022/06/21 07:41:02;;;;;;;6.90;2.20;;;18.90;78.50;;;;;;6219075;23;20299;-75
2022/06/21 07:44:24;;;;;;;9.68;2.42;;;19.30;79.40;;;;;;6215432;23;20024;-73
2022/06/21 07:51:55;;;;;;;7.75;2.28;;;20.30;77.20;;;;;;6244372;23;20063;-71
2022/06/21 07:54:26;;;;;;;7.88;2.40;;;20.40;75.80;;;;;;6121509;23;20019;-73
2022/06/21 07:57:28;;;;;;;8.50;1.55;;;20.80;76.20;;;;;;6171598;23;20012;-73
2022/06/21 08:51:46;;;;;;;;;;;22.80;64.70;;;;;;6154669;23;20021;-79
2022/06/21 08:54:14;;;;;;;7.35;1.92;;;22.90;64.40;;;;;;6216231;22;19911;-76
2022/06/21 08:57:19;;;;;;;5.88;1.80;;;22.80;67.00;;;;;;6224832;22;20086;-76
2022/06/21 09:00:03;;;;;;;6.75;2.00;;;22.90;65.90;;;;;;6225412;22;20007;-79
2022/06/21 09:02:47;;;;;;;9.23;1.90;;;22.90;66.60;;;;;;6225173;22;20061;-79
2022/06/21 09:05:31;;;;;;;4.38;1.40;;;22.70;65.00;;;;;;6250643;22;20011;-80
2022/06/21 09:08:22;;;;;;;4.38;1.40;;;22.90;65.70;;;;;;6224793;22;20504;-80
2022/06/21 09:11:08;;;;;;;7.90;1.50;;;23.20;63.70;;;;;;6250733;22;20318;-79
2022/06/21 09:14:06;;;;;;;5.50;1.60;;;23.60;63.50;;;;;;6194441;22;20016;-82
2022/06/21 09:17:13;;;;;;;6.15;1.40;;;23.60;63.60;;;;;;6225286;22;20012;-79
2022/06/21 09:19:51;;;;;;;6.32;1.50;;;23.70;63.20;;;;;;6225260;22;20018;-80
2022/06/21 09:22:42;;;;;;;6.43;1.63;;;23.80;64.00;;;;;;6225409;22;20007;-79
2022/06/21 09:25:28;;;;;;;7.35;1.58;;;23.80;63.00;;;;;;6225504;22;20008;-78
2022/06/21 09:28:04;;;;;;;6.75;1.77;;;23.90;63.20;;;;;;6249872;22;20093;-79
2022/06/21 09:30:42;;;;;;;4.75;1.70;;;24.00;64.20;;;;;;6225635;22;20070;-80
2022/06/21 09:33:33;;;;;;;6.32;1.63;;;24.10;63.10;;;;;;6250407;22;20008;-80
2022/06/21 09:36:08;;;;;;;6.80;1.60;;;24.30;62.40;;;;;;6223843;22;20080;-79
2022/06/21 09:39:02;;;;;;;9.25;1.60;;;24.40;62.40;;;;;;6224738;22;20347;-79
2022/06/21 09:41:36;;;;;;;7.03;1.42;;;24.20;59.80;;;;;;6223943;22;20019;-80
2022/06/21 09:44:19;;;;;;;5.55;1.75;;;23.70;61.50;;;;;;6234286;22;20431;-80
2022/06/21 09:47:16;;;;;;;9.68;1.52;;;23.20;61.30;;;;;;6225558;22;20314;-80
2022/06/21 09:49:55;;;;;;;6.90;1.50;;;22.60;63.40;;;;;;6250603;22;20015;-79
2022/06/21 09:52:40;;;;;;;5.63;1.80;;;22.60;64.40;;;;;;6225467;22;20246;-80
2022/06/21 09:55:34;;;;;;;3.95;1.50;;;22.60;63.90;;;;;;6275404;22;20007;-80
2022/06/21 09:58:17;;;;;;;5.70;1.77;;;22.40;63.80;;;;;;6278810;22;20006;-79
2022/06/21 10:01:06;;;;;;;6.30;1.70;;;22.60;65.40;;;;;;6279182;22;20007;-80
2022/06/21 10:04:02;;;;;;;8.30;1.50;;;22.80;64.90;;;;;;6241886;22;20043;-80
2022/06/21 10:06:52;;;;;;;4.10;1.30;;;23.20;63.70;;;;;;6224669;22;20039;-78
2022/06/21 10:09:40;;;;;;;2.70;0.90;;;23.30;61.00;;;;;;6224669;22;20007;-79
2022/06/21 10:12:16;;;;;;;7.15;1.48;;;23.20;60.50;;;;;;6250270;22;20011;-81
2022/06/21 10:15:28;;;;;;;10.80;1.33;;;23.30;59.70;;;;;;6224457;22;20061;-79
2022/06/21 10:18:17;;;;;;;6.45;1.45;;;23.30;61.80;;;;;;6221352;22;20019;-80
2022/06/21 10:20:48;;;;;;;8.15;1.90;;;23.80;61.40;;;;;;6225024;22;20014;-80
2022/06/21 10:23:22;;;;;;;6.13;1.52;;;23.80;60.80;;;;;;6224596;22;20438;-80
2022/06/21 10:26:16;;;;;;;5.43;1.48;;;23.90;61.70;;;;;;6249401;22;20056;-79
2022/06/21 10:29:08;;;;;;;6.63;1.88;;;24.10;61.50;;;;;;6248872;22;20019;-80
2022/06/21 10:31:42;;;;;;;6.07;1.70;;;24.00;62.20;;;;;;6250174;22;20019;-80
2022/06/21 10:34:20;;;;;;;5.90;1.70;;;23.60;62.50;;;;;;6224689;22;20012;-79
2022/06/21 10:37:07;;;;;;;4.78;1.60;;;23.70;63.00;;;;;;6249118;22;20011;-80
2022/06/21 10:39:33;;;;;;;;;;;23.70;62.70;;;;;;6250177;22;20011;-78
2022/06/21 10:45:49;;;;;;;8.38;1.70;;;24.20;62.80;;;;;;6249156;22;20024;-80
2022/06/21 10:48:42;;;;;;;6.13;1.70;;;24.40;60.50;;;;;;6249178;22;20086;-79
2022/06/21 10:51:33;;;;;;;5.78;1.67;;;24.30;62.50;;;;;;6250055;22;20015;-80
2022/06/21 10:54:20;;;;;;;6.03;1.85;;;24.40;62.80;;;;;;6224264;22;20007;-80
2022/06/21 10:57:09;;;;;;;9.57;1.73;;;24.40;61.50;;;;;;6224285;22;20007;-80
2022/06/21 11:02:54;;;;;;;5.30;1.40;;;24.10;59.30;;;;;;6254341;22;20012;-82
2022/06/21 11:05:32;;;;;;;5.78;1.45;;;24.50;61.80;;;;;;6253907;22;20046;-80
2022/06/21 11:08:22;;;;;;;6.97;1.70;;;24.60;61.50;;;;;;6249425;22;20007;-78
2022/06/21 11:10:54;;;;;;;8.07;1.45;;;24.80;59.90;;;;;;6224207;22;20087;-77
2022/06/21 11:13:22;;;;;;;3.80;1.67;;;24.90;58.90;;;;;;6224647;22;20030;-76
2022/06/21 11:15:53;;;;;;;6.30;1.33;;;24.90;59.20;;;;;;6249234;22;20011;-78
2022/06/21 11:18:19;;;;;;;3.95;1.38;;;24.70;59.00;;;;;;6224018;22;20086;-76
2022/06/21 11:20:52;;;;;;;6.07;1.60;;;24.80;59.80;;;;;;6224449;22;20043;-78
2022/06/21 11:23:40;;;;;;;6.93;1.60;;;24.80;58.80;;;;;;6224675;22;20303;-78
2022/06/21 11:26:27;;;;;;;6.10;1.40;;;24.50;59.10;;;;;;6224269;22;20094;-76
2022/06/21 11:29:04;;;;;;;7.18;1.25;;;24.80;58.00;;;;;;6225429;22;20012;-77
2022/06/21 11:31:44;;;;;;;6.28;1.50;;;24.70;57.60;;;;;;6226364;22;20008;-76
2022/06/21 11:34:23;;;;;;;4.90;1.33;;;24.70;58.10;;;;;;6251338;22;20007;-78
2022/06/21 11:37:11;;;;;;;4.22;1.33;;;24.80;57.90;;;;;;6225671;22;20004;-76
2022/06/21 11:40:00;;;;;;;5.88;1.20;;;24.80;57.30;;;;;;6225977;22;20008;-80
2022/06/21 11:42:55;;;;;;;4.93;1.13;;;24.70;56.80;;;;;;6197920;22;20008;-77
2022/06/21 11:45:58;;;;;;;5.75;1.23;;;24.80;57.50;;;;;;6252059;22;20012;-78
2022/06/21 11:48:47;;;;;;;6.53;1.15;;;25.00;57.00;;;;;;6225359;22;20026;-78
2022/06/21 11:51:35;;;;;;;4.70;0.82;;;24.80;56.40;;;;;;6226225;22;20050;-78
2022/06/21 11:54:09;;;;;;;3.42;1.00;;;24.90;56.70;;;;;;6226395;22;20008;-77
2022/06/21 11:56:57;;;;;;;5.03;1.10;;;25.00;55.90;;;;;;6225998;22;20012;-77
2022/06/21 11:59:40;;;;;;;3.83;0.95;;;25.10;54.80;;;;;;6226154;22;20368;-77
2022/06/21 12:02:25;;;;;;;2.65;0.82;;;25.20;54.50;;;;;;6251474;22;20012;-78
2022/06/21 12:05:01;;;;;;;3.25;1.10;;;25.20;53.40;;;;;;6251062;22;20010;-78
2022/06/21 12:07:31;;;;;;;4.25;1.00;;;25.10;52.20;;;;;;6250698;22;20310;-78
2022/06/21 12:10:06;;;;;;;3.10;0.98;;;25.00;52.90;;;;;;6226248;22;20012;-78
2022/06/21 12:12:55;;;;;;;2.85;0.93;;;24.80;52.80;;;;;;6251675;22;20008;-77
2022/06/21 12:15:40;;;;;;;2.65;0.70;;;24.80;52.80;;;;;;6225689;22;20011;-78
2022/06/21 12:18:15;;;;;;;2.78;0.70;;;25.10;52.10;;;;;;6225068;22;20003;-77
2022/06/21 12:20:52;;;;;;;3.63;0.90;;;25.10;50.90;;;;;;6251080;22;20007;-79
2022/06/21 12:23:35;;;;;;;4.82;0.80;;;25.20;50.60;;;;;;6228445;22;20008;-77
2022/06/21 12:26:02;;;;;;;5.43;0.85;;;25.20;49.60;;;;;;6252913;22;20053;-78
2022/06/21 12:28:35;;;;;;;4.30;0.90;;;25.10;49.60;;;;;;6235805;22;20011;-77
2022/06/21 12:31:11;;;;;;;4.60;1.30;;;25.20;51.30;;;;;;6258107;22;20050;-77
2022/06/21 12:33:39;;;;;;;6.13;1.50;;;25.30;52.30;;;;;;6251363;22;20012;-78
2022/06/21 12:36:13;;;;;;;4.38;1.60;;;25.10;53.30;;;;;;6225504;22;20065;-78
2022/06/21 12:38:46;;;;;;;6.32;1.58;;;25.20;53.30;;;;;;6225149;22;20011;-77
2022/06/21 12:41:20;;;;;;;4.88;1.38;;;25.20;53.70;;;;;;6225597;22;20022;-77
2022/06/21 12:44:00;;;;;;;9.85;1.33;;;25.20;53.20;;;;;;6250827;22;20011;-78
2022/06/21 12:46:48;;;;;;;6.47;1.20;;;25.20;54.80;;;;;;6251015;22;20007;-77
2022/06/21 12:49:26;;;;;;;5.47;1.80;;;25.30;54.50;;;;;;6225307;22;20333;-77
2022/06/21 12:52:16;;;;;;;4.57;1.50;;;25.20;53.00;;;;;;6254685;22;20011;-78
2022/06/21 12:55:10;;;;;;;5.55;1.48;;;25.30;53.20;;;;;;6238222;22;20023;-76
2022/06/21 12:57:52;;;;;;;3.67;1.20;;;25.40;52.60;;;;;;6253182;22;20031;-77
2022/06/21 13:00:28;;;;;;;3.70;1.02;;;25.30;53.00;;;;;;6254413;22;20009;-78
2022/06/21 13:03:09;;;;;;;3.25;1.10;;;25.30;53.30;;;;;;6254248;22;20017;-77
2022/06/21 13:06:03;;;;;;;3.83;1.25;;;25.20;52.90;;;;;;6266882;22;20441;-76
2022/06/21 13:08:50;;;;;;;4.35;1.20;;;25.40;51.80;;;;;;6251325;22;20012;-79
2022/06/21 13:11:40;;;;;;;4.75;1.20;;;25.40;53.10;;;;;;6225679;22;20018;-77
2022/06/21 13:14:39;;;;;;;4.80;1.20;;;25.50;53.20;;;;;;6225442;22;20322;-77
2022/06/21 13:17:21;;;;;;;4.05;1.00;;;25.30;48.70;;;;;;6224628;22;20016;-79
2022/06/21 13:20:14;;;;;;;7.50;1.73;;;25.00;53.30;;;;;;6250439;22;20014;-76
2022/06/21 13:23:02;;;;;;;5.00;1.20;;;25.40;54.10;;;;;;6225421;22;20330;-78
2022/06/21 13:25:47;;;;;;;3.80;1.02;;;25.70;52.50;;;;;;6224949;22;20057;-77
2022/06/21 13:28:28;;;;;;;3.50;1.05;;;25.90;51.10;;;;;;6250192;22;20314;-78
2022/06/21 13:31:06;;;;;;;5.72;1.33;;;26.30;50.70;;;;;;6225301;22;20007;-79
2022/06/21 13:33:35;;;;;;;4.55;1.83;;;26.40;52.90;;;;;;6250297;22;20039;-78
2022/06/21 13:36:33;;;;;;;7.35;1.80;;;26.30;54.60;;;;;;6250017;22;20492;-78
2022/06/21 13:39:35;;;;;;;8.00;2.33;;;26.30;54.80;;;;;;6224670;22;20341;-78
2022/06/21 13:45:39;;;;;;;6.88;1.73;;;26.10;55.20;;;;;;6250218;22;20393;-77
2022/06/21 13:48:35;;;;;;;5.32;1.63;;;26.00;54.80;;;;;;6244704;23;20308;-78
2022/06/21 13:51:21;;;;;;;9.45;2.00;;;25.60;55.20;;;;;;6252371;23;20071;-78
2022/06/21 13:53:50;;;;;;;6.00;1.73;;;25.80;56.10;;;;;;6225245;23;20091;-79
2022/06/21 13:56:48;;;;;;;5.57;1.55;;;25.70;56.70;;;;;;6244206;23;20008;-78
2022/06/21 13:59:21;;;;;;;5.35;1.65;;;25.70;56.80;;;;;;6244952;23;20019;-78
2022/06/21 14:01:49;;;;;;;9.38;2.05;;;25.90;57.60;;;;;;6219708;23;20016;-78
2022/06/21 14:04:42;;;;;;;5.18;1.50;;;25.90;58.20;;;;;;6220069;23;20023;-77
2022/06/21 14:07:37;;;;;;;5.90;1.73;;;25.90;57.10;;;;;;6244234;23;20012;-80
2022/06/21 14:10:13;;;;;;;6.80;1.60;;;26.00;56.20;;;;;;6219443;23;20094;-78
2022/06/21 14:13:28;;;;;;;6.30;1.45;;;26.10;56.20;;;;;;6219679;23;20016;-78
2022/06/21 14:16:08;;;;;;;7.40;1.73;;;26.20;54.50;;;;;;6162468;23;20012;-79
2022/06/21 14:19:09;;;;;;;4.95;1.30;;;26.20;55.20;;;;;;6163505;23;20486;-78
2022/06/21 14:21:45;;;;;;;5.10;1.35;;;25.90;55.40;;;;;;6232921;23;20019;-77
2022/06/21 14:24:36;;;;;;;7.43;1.70;;;25.50;55.40;;;;;;6244470;23;20012;-78
2022/06/21 14:27:06;;;;;;;7.28;1.85;;;25.30;57.40;;;;;;6219433;23;20462;-77
2022/06/21 14:29:51;;;;;;;7.13;2.00;;;25.10;57.60;;;;;;6244707;23;20457;-78
2022/06/21 14:32:22;;;;;;;6.45;1.60;;;25.10;58.00;;;;;;6220131;23;20004;-79
2022/06/21 14:35:21;;;;;;;6.05;1.70;;;24.90;57.20;;;;;;6218769;23;20009;-79
2022/06/21 14:38:02;;;;;;;6.38;1.38;;;24.90;57.00;;;;;;6244168;23;20006;-78
2022/06/21 14:40:46;;;;;;;5.72;1.67;;;24.80;57.60;;;;;;6244996;23;20004;-79
2022/06/21 14:43:19;;;;;;;5.75;1.58;;;24.70;59.10;;;;;;6219331;23;20451;-78
2022/06/21 14:46:02;;;;;;;6.20;1.63;;;24.60;58.50;;;;;;6194038;23;20012;-77
2022/06/21 14:48:47;;;;;;;4.60;1.30;;;24.40;59.00;;;;;;6244031;23;20119;-76
2022/06/21 14:51:19;;;;;;;6.80;1.35;;;24.40;59.10;;;;;;6219581;23;20043;-78
2022/06/21 14:53:59;;;;;;;6.78;1.40;;;24.30;59.20;;;;;;6219479;23;20024;-77
2022/06/21 14:56:57;;;;;;;7.55;1.83;;;24.30;60.00;;;;;;6193173;23;20101;-77
2022/06/21 14:59:46;;;;;;;7.53;2.25;;;24.30;61.00;;;;;;6219623;23;20103;-78
2022/06/21 15:02:40;;;;;;;8.60;1.42;;;24.30;62.50;;;;;;6220542;23;20019;-77